createdAt,value
2019-05-02T00:01:06.408Z,7.47
2019-05-02T00:06:13.554Z,8.40
2019-05-02T00:08:43.802Z,7.63
2019-05-02T00:11:13.395Z,8.10
2019-05-02T00:18:56.227Z,8.75
2019-05-02T00:21:25.559Z,7.37
2019-05-02T00:23:53.949Z,8.73
2019-05-02T00:26:24.657Z,7.63
2019-05-02T00:28:50.705Z,7.70
2019-05-02T00:31:19.033Z,7.20
2019-05-02T00:33:47.383Z,7.63
2019-05-02T00:36:15.766Z,6.97
2019-05-02T00:38:44.144Z,8.30
2019-05-02T00:41:12.521Z,7.23
2019-05-02T00:43:40.905Z,9.20
2019-05-02T00:46:10.284Z,7.07
2019-05-02T00:51:12.924Z,9.27
2019-05-02T00:53:44.546Z,8.30
2019-05-02T00:56:10.379Z,9.07
2019-05-02T00:58:38.149Z,9.60
2019-05-02T01:07:03.990Z,8.38
2019-05-02T01:09:32.348Z,8.00
2019-05-02T01:12:03.054Z,7.97
2019-05-02T01:14:31.851Z,7.33
2019-05-02T01:16:57.699Z,7.40
2019-05-02T01:22:03.286Z,8.10
2019-05-02T01:24:34.263Z,7.80
2019-05-02T01:27:06.488Z,7.50
2019-05-02T01:29:33.877Z,6.80
2019-05-02T01:32:03.164Z,6.70
2019-05-02T01:37:12.408Z,8.20
2019-05-02T01:39:37.967Z,6.57
2019-05-02T01:42:06.437Z,6.30
2019-05-02T01:44:36.319Z,6.53
2019-05-02T01:47:03.169Z,7.30
2019-05-02T01:49:31.619Z,6.47
2019-05-02T01:52:00.895Z,6.30
2019-05-02T01:54:30.294Z,7.10
2019-05-02T01:56:58.706Z,5.67
2019-05-02T01:59:29.121Z,6.00
2019-05-02T02:01:57.913Z,6.83
2019-05-02T02:04:23.875Z,6.20
2019-05-02T02:09:29.428Z,7.35
2019-05-02T02:11:57.783Z,6.90
2019-05-02T02:14:26.204Z,6.40
2019-05-02T02:16:54.940Z,6.67
2019-05-02T02:19:23.627Z,6.23
2019-05-02T02:24:29.170Z,7.37
2019-05-02T02:29:32.659Z,7.30
2019-05-02T02:32:01.032Z,6.33
2019-05-02T02:37:05.330Z,6.97
2019-05-02T02:39:32.027Z,5.73
2019-05-02T02:42:01.322Z,6.80
2019-05-02T02:44:40.382Z,6.57
2019-05-02T02:47:11.472Z,6.40
2019-05-02T02:49:34.014Z,7.68
2019-05-02T02:52:04.889Z,5.93
2019-05-02T02:54:36.405Z,7.47
2019-05-02T02:56:59.125Z,5.97
2019-05-02T02:59:28.457Z,6.70
2019-05-02T03:02:09.005Z,5.87
2019-05-02T03:04:25.187Z,7.20
2019-05-02T03:06:55.621Z,5.20
2019-05-02T03:09:26.612Z,6.00
2019-05-02T03:14:47.335Z,6.65
2019-05-02T03:17:20.387Z,6.40
2019-05-02T03:19:43.039Z,6.70
2019-05-02T03:22:11.391Z,5.90
2019-05-02T03:24:44.131Z,4.50
2019-05-02T03:27:08.170Z,5.20
2019-05-02T03:29:41.825Z,4.63
2019-05-02T03:32:16.566Z,5.40
2019-05-02T03:37:10.724Z,6.35
2019-05-02T03:39:36.010Z,5.70
2019-05-02T03:42:05.138Z,5.03
2019-05-02T03:44:33.609Z,5.30
2019-05-02T03:47:04.687Z,6.30
2019-05-02T03:49:31.387Z,4.70
2019-05-02T03:52:02.947Z,5.90
2019-05-02T03:57:02.438Z,6.45
2019-05-02T04:02:05.092Z,6.40
2019-05-02T04:04:33.419Z,5.47
2019-05-02T04:07:03.436Z,5.20
2019-05-02T04:09:38.202Z,5.78
2019-05-02T04:12:00.451Z,5.23
2019-05-02T04:14:37.712Z,5.33
2019-05-02T04:16:57.397Z,5.67
2019-05-02T04:19:28.658Z,6.00
2019-05-02T04:21:54.951Z,5.13
2019-05-02T04:24:23.274Z,6.33
2019-05-02T04:26:56.058Z,5.37
2019-05-02T04:29:24.467Z,5.47
2019-05-02T04:31:48.373Z,5.47
2019-05-02T04:34:17.922Z,4.83
2019-05-02T04:36:46.684Z,4.43
2019-05-02T04:39:20.519Z,5.73
2019-05-02T04:41:42.413Z,5.77
2019-05-02T04:44:10.343Z,5.60
2019-05-02T04:46:38.930Z,6.65
2019-05-02T04:49:09.224Z,5.47
2019-05-02T04:51:38.053Z,4.87
2019-05-02T04:54:03.886Z,5.30
2019-05-02T04:56:32.219Z,5.03
2019-05-02T04:59:01.827Z,5.47
2019-05-02T05:01:33.024Z,5.27
2019-05-02T05:04:02.825Z,5.20
2019-05-02T05:06:27.659Z,5.07
2019-05-02T05:08:54.793Z,5.23
2019-05-02T05:11:24.965Z,4.77
2019-05-02T05:13:52.411Z,5.20
2019-05-02T05:16:19.949Z,4.80
2019-05-02T05:18:51.866Z,5.97
2019-05-02T05:21:17.838Z,5.40
2019-05-02T05:29:00.100Z,5.30
2019-05-02T05:31:29.428Z,4.57
2019-05-02T05:33:57.987Z,5.03
2019-05-02T05:36:32.577Z,5.30
2019-05-02T05:41:28.853Z,5.57
2019-05-02T05:43:57.544Z,5.60
2019-05-02T05:46:27.783Z,5.80
2019-05-02T05:48:54.118Z,5.97
2019-05-02T05:51:22.490Z,6.40
2019-05-02T05:53:52.271Z,5.40
2019-05-02T05:56:19.224Z,5.60
2019-05-02T05:58:52.430Z,5.60
2019-05-02T06:01:17.680Z,6.65
2019-05-02T06:06:22.925Z,5.20
2019-05-02T06:08:49.123Z,5.83
2019-05-02T06:11:20.071Z,4.90
2019-05-02T06:13:48.908Z,5.28
2019-05-02T06:18:49.802Z,5.47
2019-05-02T06:21:18.172Z,4.13
2019-05-02T06:26:22.799Z,5.20
2019-05-02T06:34:02.198Z,5.10
2019-05-02T06:36:32.023Z,4.40
2019-05-02T06:41:30.592Z,4.50
2019-05-02T06:43:59.901Z,4.43
2019-05-02T06:46:29.674Z,4.83
2019-05-02T06:48:56.649Z,4.27
2019-05-02T06:51:24.999Z,4.83
2019-05-02T06:53:53.440Z,4.90
2019-05-02T06:58:24.989Z,4.82
2019-05-02T07:00:58.437Z,4.60
2019-05-02T07:03:21.896Z,5.20
2019-05-02T07:13:36.446Z,5.40
2019-05-02T07:18:47.691Z,5.28
2019-05-02T07:23:53.625Z,5.67
2019-05-02T07:26:21.063Z,6.40
2019-05-02T07:28:47.503Z,4.63
2019-05-02T07:33:48.858Z,5.37
2019-05-02T07:36:17.329Z,6.07
2019-05-02T07:41:24.167Z,5.40
2019-05-02T07:43:52.182Z,5.57
2019-05-02T07:48:54.554Z,5.20
2019-05-02T07:51:22.647Z,5.17
2019-05-02T07:58:59.197Z,5.50
2019-05-02T08:01:28.500Z,6.13
2019-05-02T08:03:56.919Z,6.57
2019-05-02T08:09:01.684Z,6.40
2019-05-02T08:11:27.888Z,6.23
2019-05-02T08:14:00.334Z,5.80
2019-05-02T08:19:01.286Z,6.10
2019-05-02T08:21:32.153Z,7.10
2019-05-02T08:23:57.159Z,6.60
2019-05-02T08:29:01.637Z,7.37
2019-05-02T08:31:30.313Z,7.27
2019-05-02T08:33:59.400Z,6.70
2019-05-02T08:39:02.071Z,7.53
2019-05-02T08:41:30.457Z,7.50
2019-05-02T08:43:58.865Z,8.07
2019-05-02T08:46:27.263Z,7.80
2019-05-02T08:54:04.409Z,7.28
2019-05-02T08:56:34.966Z,6.47
2019-05-02T08:59:02.136Z,7.40
2019-05-02T09:01:35.248Z,7.47
2019-05-02T09:03:58.825Z,7.50
2019-05-02T09:06:27.218Z,7.33
2019-05-02T09:11:29.910Z,8.07
2019-05-02T09:16:33.532Z,7.82
2019-05-02T09:19:02.812Z,7.33
2019-05-02T09:21:34.155Z,8.00
2019-05-02T09:26:38.664Z,7.03
2019-05-02T09:29:05.467Z,7.03
2019-05-02T09:34:07.146Z,7.60
2019-05-02T09:36:38.086Z,6.90
2019-05-02T09:39:03.936Z,7.03
2019-05-02T09:41:36.198Z,6.90
2019-05-02T09:44:02.915Z,6.80
2019-05-02T09:49:13.533Z,7.12
2019-05-02T09:51:37.704Z,7.20
2019-05-02T09:54:06.478Z,6.10
2019-05-02T10:01:43.917Z,7.00
2019-05-02T10:06:52.274Z,6.60
2019-05-02T10:09:18.753Z,6.55
2019-05-02T10:11:46.478Z,7.00
2019-05-02T10:14:14.917Z,5.57
2019-05-02T10:16:43.309Z,5.50
2019-05-02T10:19:13.554Z,6.47
2019-05-02T10:21:42.108Z,6.60
2019-05-02T10:26:42.925Z,6.55
2019-05-02T10:29:12.759Z,6.53
2019-05-02T10:31:41.966Z,6.50
2019-05-02T10:36:45.510Z,6.20
2019-05-02T10:39:15.710Z,6.30
2019-05-02T10:41:43.628Z,6.17
2019-05-02T10:49:26.324Z,6.80
2019-05-02T10:51:54.688Z,6.90
2019-05-02T10:54:23.279Z,7.10
2019-05-02T10:59:28.940Z,6.53
2019-05-02T11:01:59.669Z,9.45
2019-05-02T11:04:29.393Z,6.67
2019-05-02T11:09:31.893Z,7.03
2019-05-02T11:19:48.236Z,6.47
2019-05-02T11:22:16.596Z,6.20
2019-05-02T11:24:45.107Z,7.20
2019-05-02T11:29:47.773Z,6.70
2019-05-02T11:32:16.135Z,6.60
2019-05-02T11:34:44.581Z,7.32
2019-05-02T11:37:12.941Z,6.50
2019-05-02T11:39:49.054Z,6.43
2019-05-02T11:42:09.724Z,5.80
2019-05-02T11:44:38.754Z,6.40
2019-05-02T11:47:08.132Z,5.50
2019-05-02T11:49:36.525Z,4.80
2019-05-02T11:52:04.883Z,4.83
2019-05-02T11:54:33.277Z,5.00
2019-05-02T11:57:02.211Z,6.10
2019-05-02T11:59:32.062Z,5.43
2019-05-02T12:04:34.296Z,4.60
2019-05-02T12:07:04.920Z,5.70
2019-05-02T12:09:31.949Z,4.97
2019-05-02T12:11:59.450Z,6.57
2019-05-02T12:14:34.588Z,6.10
2019-05-02T12:16:57.138Z,5.43
2019-05-02T12:19:25.479Z,4.30
2019-05-02T12:21:53.842Z,3.73
2019-05-02T12:24:22.226Z,4.57
2019-05-02T12:26:52.666Z,5.30
2019-05-02T12:29:18.925Z,4.63
2019-05-02T12:31:51.825Z,4.50
2019-05-02T12:34:15.646Z,4.97
2019-05-02T12:41:53.623Z,4.70
2019-05-02T12:44:22.291Z,4.23
2019-05-02T12:46:49.085Z,4.93
2019-05-02T12:49:25.347Z,4.70
2019-05-02T12:54:21.981Z,4.00
2019-05-02T12:56:48.532Z,3.80
2019-05-02T12:59:16.886Z,4.07
2019-05-02T13:01:45.326Z,3.80
2019-05-02T13:04:13.689Z,3.93
2019-05-02T13:06:42.296Z,3.90
2019-05-02T13:09:12.435Z,3.90
2019-05-02T13:14:19.132Z,3.37
2019-05-02T13:16:43.026Z,3.70
2019-05-02T13:19:11.798Z,4.00
2019-05-02T13:21:58.060Z,3.27
2019-05-02T13:32:16.890Z,3.70
2019-05-02T13:34:43.683Z,3.23
2019-05-02T13:37:08.766Z,4.00
2019-05-02T13:39:37.972Z,2.83
2019-05-02T13:42:06.337Z,3.67
2019-05-02T13:47:28.940Z,3.25
2019-05-02T13:50:00.697Z,3.07
2019-05-02T13:52:25.779Z,3.00
2019-05-02T13:54:54.126Z,3.70
2019-05-02T13:57:22.480Z,2.80
2019-05-02T13:59:52.546Z,2.67
2019-05-02T14:05:03.463Z,2.03
2019-05-02T14:07:32.668Z,2.30
2019-05-02T14:12:45.259Z,2.17
2019-05-02T14:15:13.859Z,1.77
2019-05-02T14:17:42.365Z,2.40
2019-05-02T14:22:44.752Z,2.70
2019-05-02T14:25:13.149Z,2.80
2019-05-02T14:27:42.182Z,2.40
2019-05-02T14:32:44.176Z,3.15
2019-05-02T14:35:13.981Z,3.20
2019-05-02T14:40:16.940Z,2.60
2019-05-02T14:42:46.356Z,2.67
2019-05-02T14:47:49.766Z,3.45
2019-05-02T14:50:24.246Z,3.93
2019-05-02T14:52:46.602Z,2.70
2019-05-02T14:55:17.089Z,3.87
2019-05-02T14:57:45.617Z,3.00
2019-05-02T15:00:13.964Z,3.37
2019-05-02T15:02:47.211Z,3.03
2019-05-02T15:05:12.680Z,2.60
2019-05-02T15:07:39.277Z,2.47
2019-05-02T15:10:07.632Z,2.13
2019-05-02T15:12:36.305Z,2.97
2019-05-02T15:15:04.645Z,3.57
2019-05-02T15:17:37.720Z,3.17
2019-05-02T15:22:38.823Z,3.20
2019-05-02T15:25:07.882Z,3.30
2019-05-02T15:27:42.040Z,3.80
2019-05-02T15:30:07.264Z,3.23
2019-05-02T15:35:17.737Z,3.08
2019-05-02T15:37:42.342Z,2.77
2019-05-02T15:42:39.045Z,4.07
2019-05-02T15:45:07.477Z,3.30
2019-05-02T15:47:36.973Z,3.60
2019-05-02T15:50:04.253Z,4.13
2019-05-02T15:52:34.056Z,3.90
2019-05-02T15:55:04.101Z,4.10
2019-05-02T15:57:37.643Z,3.20
2019-05-02T15:59:59.184Z,3.60
2019-05-02T16:05:06.696Z,3.70
2019-05-02T16:07:38.018Z,3.90
2019-05-02T16:10:03.963Z,3.90
2019-05-02T16:12:35.774Z,3.60
2019-05-02T16:17:34.455Z,4.20
2019-05-02T16:22:38.188Z,4.30
2019-05-02T16:25:07.083Z,4.60
2019-05-02T16:27:42.065Z,4.37
2019-05-02T16:30:12.818Z,4.60
2019-05-02T16:35:16.953Z,4.90
2019-05-02T16:42:48.984Z,4.70
2019-05-02T16:45:17.335Z,4.80
2019-05-02T16:50:19.922Z,5.00
2019-05-02T16:52:48.268Z,5.00
2019-05-02T16:55:21.135Z,5.60
2019-05-02T16:57:46.059Z,5.27
2019-05-02T17:00:15.331Z,4.80
2019-05-02T17:02:46.381Z,5.97
2019-05-02T17:07:49.239Z,5.60
2019-05-02T17:10:18.264Z,5.30
2019-05-02T17:12:47.220Z,5.45
2019-05-02T17:15:22.005Z,5.17
2019-05-02T17:17:50.088Z,5.47
2019-05-02T17:20:18.475Z,5.70
2019-05-02T17:22:50.224Z,5.50
2019-05-02T17:25:15.249Z,5.07
2019-05-02T17:27:44.656Z,5.13
2019-05-02T17:30:13.104Z,5.10
2019-05-02T17:32:41.593Z,4.90
2019-05-02T17:35:11.573Z,5.50
2019-05-02T17:37:40.719Z,6.00
2019-05-02T17:40:06.613Z,5.17
2019-05-02T17:42:35.045Z,5.73
2019-05-02T17:45:03.925Z,5.67
2019-05-02T17:47:36.120Z,5.20
2019-05-02T17:50:01.982Z,5.23
2019-05-02T17:52:40.303Z,5.40
2019-05-02T17:55:08.641Z,5.17
2019-05-02T17:57:37.012Z,4.97
2019-05-02T18:02:39.620Z,4.50
2019-05-02T18:07:42.308Z,5.60
2019-05-02T18:12:47.325Z,5.82
2019-05-02T18:15:14.732Z,5.70
2019-05-02T18:17:44.147Z,6.00
2019-05-02T18:20:12.706Z,4.73
2019-05-02T18:22:45.385Z,4.50
2019-05-02T18:25:11.655Z,5.30
2019-05-02T18:30:17.225Z,5.60
2019-05-02T18:32:42.038Z,5.40
2019-05-02T18:35:11.661Z,4.90
2019-05-02T18:37:45.106Z,4.47
2019-05-02T18:40:06.692Z,6.23
2019-05-02T18:42:35.156Z,5.22
2019-05-02T18:45:03.516Z,5.30
2019-05-02T18:47:33.440Z,4.47
2019-05-02T18:50:02.101Z,4.97
2019-05-02T18:55:02.880Z,5.10
2019-05-02T18:57:31.217Z,4.90
2019-05-02T19:00:01.971Z,6.00
2019-05-02T19:05:03.093Z,6.30
2019-05-02T19:07:35.639Z,6.67
2019-05-02T19:10:05.774Z,5.53
2019-05-02T19:12:28.323Z,5.33
2019-05-02T19:14:57.461Z,5.70
2019-05-02T19:17:25.133Z,6.20
2019-05-02T19:19:53.592Z,6.17
2019-05-02T19:24:58.228Z,5.77
2019-05-02T19:30:24.530Z,5.53
2019-05-02T19:32:49.368Z,5.07
2019-05-02T19:35:17.729Z,5.30
2019-05-02T19:37:47.855Z,4.77
2019-05-02T19:45:23.023Z,5.00
2019-05-02T19:47:54.311Z,4.50
2019-05-02T19:50:40.288Z,5.57
2019-05-02T19:55:37.299Z,6.10
2019-05-02T19:58:06.549Z,5.80
2019-05-02T20:00:36.514Z,7.20
2019-05-02T20:03:02.471Z,6.03
2019-05-02T20:05:32.291Z,6.27
2019-05-02T20:10:38.929Z,6.55
2019-05-02T20:13:07.269Z,5.70
2019-05-02T20:18:11.836Z,6.40
2019-05-02T20:20:42.144Z,7.40
2019-05-02T20:23:17.979Z,6.80
2019-05-02T20:25:39.919Z,6.80
2019-05-02T20:28:08.257Z,6.30
2019-05-02T20:33:15.908Z,8.70
2019-05-02T20:35:44.292Z,8.30
2019-05-02T20:40:47.910Z,8.70
2019-05-02T20:43:16.475Z,7.83
2019-05-02T20:45:46.183Z,10.40
2019-05-02T20:48:13.431Z,8.33
2019-05-02T20:50:42.405Z,9.50
2019-05-02T20:55:44.432Z,10.90
2019-05-02T20:58:12.773Z,10.13
2019-05-02T21:00:42.666Z,8.83
2019-05-02T21:03:11.962Z,9.90
2019-05-02T21:05:38.885Z,9.87
2019-05-02T21:10:44.475Z,13.00
2019-05-02T21:13:12.846Z,12.03
2019-05-02T21:15:43.152Z,9.23
